Tangail, Bangladesh
Current Conditions -  °F | °C
As of 11:20 AM on Friday 28 Nov 2014 (Local Time) from VGHS Reporting Station
Haze Haze  
Wind Chill: 77°   Ceiling: Unl
Heat Index: 79°   Visibility: 1.3mi
Dew Point: 64°   Wind: 5mph
Humidity: 65%   Direction: 30°NNE
Pressure: 29.88"   Gusts: NA
Location:  24.25°N, 89.92°E
Report Text: VGHS 280520Z 03004KT 2200 HZ NSC 25/18 Q1012 BECMG S/VIS 2500M
Loading
Personal Weather Stations






























Interactive Weather Map New forecast layout! Learn more

10-Day Weather Forecast

Advertisements
Track Severe Weather on mobile